Terminal Aerodrome Forecast
Issued by NWS

Current Version | Previous Version | Text Only | Print | Product List | Glossary On
Versions: 1 2 3 4 5 6 7 8 9 10 11 12 13 14 15 16 17 18 19 20 21 22 23 24 25 26 27 28 29 30 31 32 33 34 35 36 37 38 39 40 41 42 43 44 45 46 47
121
FTUS44 KBMX 252339
TAFASN
TAF
KASN 252339Z 2600/2624 18008KT 4SM RA OVC030
     FM260600 17005KT P6SM VCSH OVC040
     FM260900 17008KT P6SM VCSH OVC020
     FM261100 16005KT 4SM BR VCSH OVC008
     FM261700 19010KT P6SM OVC025
     FM262000 20010KT P6SM BKN050=

USA.gov is the U.S. government's official web portal to all federal, state and local government web resources and services.